Malaysia Virtual Airlines Airport Information Service

Tokyo International Airport

ICAO: RJTT Country: Japan
Latitude: 35.5523 Longitude: 139.78
Latest Arrival : MC82 (WBKK-RJTT) Latest Departure : MC85 (RJTT-WBKK)


WX CaptureLIVE
Data provided by noaa.gov | Fetched at 19:36:37

METAR : RJTT 121900Z 01009KT 9999 -RA FEW015 SCT030 BKN060 15/14 Q1019 NOSIG RMK 1CU015 4SC030 7SC060 A3009

TAF : RJTT 121911Z 1219/1400 04010KT 8000 -RA FEW010 BKN020 TEMPO 1306/1312 4000 RA BR


Runway Data for RJTT
Data provided by openaviationdata.com

Runway ID Mag Var Hdg Length Elevation Surface ILS Freq ILS Id ILS Slope
4 -7 41° 8208 ft 21 ft Asphalt -- -- --
16L -7 156° 9851 ft 21 ft Asphalt -- -- --
16R -7 156° 9851 ft 21 ft Asphalt -- -- --
22 -7 221° 8208 ft 21 ft Asphalt 108.1 IAD 3
34L -7 336° 9851 ft 21 ft Asphalt 111.7 IHA 3
34R -7 336° 9851 ft 21 ft Asphalt 108.9 ITC 3

Tokyo International Airport, Japan
Use only for reference purposes



Not for navigational purposes.